createdAt,value
2022-12-14T00:01:23.082Z,12.93
2022-12-14T00:04:23.522Z,13.02
2022-12-14T00:07:19.920Z,12.82
2022-12-14T00:10:09.805Z,14.27
2022-12-14T00:13:08.923Z,15.35
2022-12-14T00:16:00.252Z,13.63
2022-12-14T00:18:56.004Z,13.70
2022-12-14T00:21:46.130Z,13.23
2022-12-14T00:25:15.403Z,13.13
2022-12-14T00:28:08.255Z,12.48
2022-12-14T00:31:53.076Z,13.50
2022-12-14T00:34:13.071Z,13.35
2022-12-14T00:37:13.013Z,12.55
2022-12-14T00:40:19.583Z,13.70
2022-12-14T00:43:17.903Z,12.40
2022-12-14T00:46:07.235Z,12.77
2022-12-14T00:49:10.355Z,12.25
2022-12-14T00:52:05.255Z,12.27
2022-12-14T00:55:04.335Z,11.63
2022-12-14T00:58:08.580Z,12.95
2022-12-14T01:01:07.108Z,12.55
2022-12-14T01:04:24.489Z,11.80
2022-12-14T01:07:20.478Z,11.43
2022-12-14T01:10:17.794Z,11.75
2022-12-14T01:13:13.870Z,11.48
2022-12-14T01:16:20.276Z,11.85
2022-12-14T01:19:40.860Z,10.98
2022-12-14T01:22:29.099Z,11.98
2022-12-14T01:25:29.809Z,12.23
2022-12-14T01:28:20.508Z,12.75
2022-12-14T01:31:24.775Z,11.15
2022-12-14T01:34:13.060Z,11.45
2022-12-14T01:37:08.116Z,12.88
2022-12-14T01:40:03.897Z,12.07
2022-12-14T01:42:56.617Z,11.82
2022-12-14T01:45:47.397Z,11.45
2022-12-14T01:48:36.670Z,11.07
2022-12-14T01:51:38.824Z,12.23
2022-12-14T01:54:34.130Z,12.20
2022-12-14T01:57:34.971Z,12.27
2022-12-14T02:00:31.715Z,11.27
2022-12-14T02:03:42.494Z,11.18
2022-12-14T02:06:36.751Z,11.57
2022-12-14T02:09:34.433Z,10.93
2022-12-14T02:12:40.942Z,11.50
2022-12-14T02:15:38.066Z,11.68
2022-12-14T02:18:40.690Z,12.35
2022-12-14T02:22:12.148Z,11.32
2022-12-14T02:26:03.632Z,11.57
2022-12-14T02:29:48.806Z,10.25
2022-12-14T02:33:06.103Z,11.13
2022-12-14T02:36:45.161Z,11.00
2022-12-14T02:40:12.194Z,11.65
2022-12-14T02:43:47.531Z,12.10
2022-12-14T02:47:17.644Z,10.15
2022-12-14T02:50:27.159Z,11.25
2022-12-14T02:53:49.480Z,10.73
2022-12-14T02:59:56.906Z,11.32
2022-12-14T03:02:48.496Z,10.88
2022-12-14T03:05:36.813Z,10.77
2022-12-14T03:08:29.782Z,11.05
2022-12-14T03:11:32.208Z,11.37
2022-12-14T03:14:46.414Z,13.07
2022-12-14T03:20:28.983Z,10.95
2022-12-14T03:23:30.587Z,11.25
2022-12-14T03:26:47.716Z,11.85
2022-12-14T03:30:06.658Z,10.75
2022-12-14T03:33:01.416Z,11.93
2022-12-14T03:36:11.509Z,11.13
2022-12-14T03:39:05.474Z,11.60
2022-12-14T03:42:20.303Z,11.65
2022-12-14T03:45:22.769Z,11.55
2022-12-14T03:48:58.314Z,11.07
2022-12-14T03:52:07.293Z,10.90
2022-12-14T03:55:23.162Z,10.75
2022-12-14T03:58:29.201Z,10.95
2022-12-14T04:01:52.765Z,10.52
2022-12-14T04:05:30.990Z,11.53
2022-12-14T04:08:52.768Z,10.27
2022-12-14T04:12:24.717Z,10.82
2022-12-14T04:15:39.370Z,11.98
2022-12-14T04:18:59.541Z,10.95
2022-12-14T04:22:05.053Z,11.90
2022-12-14T04:26:00.593Z,11.02
2022-12-14T04:29:28.399Z,11.50
2022-12-14T04:32:27.497Z,11.88
2022-12-14T04:35:33.096Z,10.48
2022-12-14T04:38:34.257Z,11.45
2022-12-14T04:41:39.503Z,11.27
2022-12-14T04:45:19.444Z,10.75
2022-12-14T04:48:25.463Z,11.77
2022-12-14T04:51:34.239Z,12.20
2022-12-14T04:54:52.917Z,11.80
2022-12-14T04:57:47.199Z,12.07
2022-12-14T05:01:11.883Z,12.43
2022-12-14T05:04:27.573Z,11.02
2022-12-14T05:07:58.470Z,11.27
2022-12-14T05:11:30.470Z,11.05
2022-12-14T05:15:07.872Z,11.27
2022-12-14T05:18:19.792Z,11.93
2022-12-14T05:21:52.385Z,10.95
2022-12-14T05:28:30.761Z,11.38
2022-12-14T05:35:07.566Z,11.70
2022-12-14T05:38:04.511Z,11.68
2022-12-14T05:41:02.237Z,12.60
2022-12-14T05:44:03.058Z,11.52
2022-12-14T05:46:52.512Z,11.80
2022-12-14T05:49:41.695Z,11.25
2022-12-14T05:52:39.593Z,12.15
2022-12-14T05:55:55.415Z,11.85
2022-12-14T06:02:06.193Z,8.53
2022-12-14T06:05:11.221Z,12.02
2022-12-14T06:08:07.125Z,11.27
2022-12-14T06:11:14.008Z,12.13
2022-12-14T06:14:40.361Z,11.13
2022-12-14T06:21:47.068Z,12.10
2022-12-14T06:24:35.562Z,12.00
2022-12-14T06:27:27.007Z,11.48
2022-12-14T06:30:16.288Z,11.48
2022-12-14T06:33:08.843Z,11.23
2022-12-14T06:36:26.680Z,11.52
2022-12-14T06:39:17.416Z,12.45
2022-12-14T06:45:05.846Z,11.38
2022-12-14T06:47:57.536Z,12.35
2022-12-14T06:50:50.360Z,11.73
2022-12-14T06:53:38.939Z,11.23
2022-12-14T06:56:28.557Z,11.45
2022-12-14T06:59:18.051Z,12.15
2022-12-14T07:02:15.068Z,12.38
2022-12-14T07:05:11.122Z,12.02
2022-12-14T07:08:24.451Z,11.55
2022-12-14T07:11:15.302Z,11.80
2022-12-14T07:14:06.517Z,12.30
2022-12-14T07:16:58.200Z,12.57
2022-12-14T07:19:51.415Z,11.65
2022-12-14T07:22:41.241Z,9.75
2022-12-14T07:25:35.881Z,12.23
2022-12-14T07:28:37.178Z,13.88
2022-12-14T07:31:52.397Z,12.15
2022-12-14T07:34:57.534Z,12.40
2022-12-14T07:41:45.435Z,13.63
2022-12-14T07:45:35.735Z,13.15
2022-12-14T07:49:22.027Z,12.55
2022-12-14T07:52:42.780Z,12.65
2022-12-14T07:58:46.916Z,12.95
2022-12-14T08:01:42.390Z,12.38
2022-12-14T08:04:32.430Z,12.77
2022-12-14T08:07:32.363Z,13.30
2022-12-14T08:10:23.350Z,13.48
2022-12-14T08:13:11.725Z,14.00
2022-12-14T08:16:11.675Z,13.05
2022-12-14T08:19:01.587Z,12.73
2022-12-14T08:21:52.019Z,12.48
2022-12-14T08:25:08.141Z,12.60
2022-12-14T08:28:06.174Z,12.32
2022-12-14T08:30:57.241Z,15.23
2022-12-14T08:33:49.500Z,13.55
2022-12-14T08:36:49.008Z,14.23
2022-12-14T08:39:47.767Z,13.88
2022-12-14T08:42:38.224Z,13.73
2022-12-14T08:45:33.267Z,14.23
2022-12-14T08:48:21.841Z,13.73
2022-12-14T08:51:14.719Z,13.88
2022-12-14T08:54:07.144Z,14.98
2022-12-14T08:57:08.011Z,14.90
2022-12-14T09:00:01.609Z,15.40
2022-12-14T09:02:55.331Z,14.57
2022-12-14T09:06:15.843Z,15.82
2022-12-14T09:09:15.998Z,15.82
2022-12-14T09:12:10.267Z,14.38
2022-12-14T09:53:05.252Z,17.10
2022-12-14T09:56:15.779Z,16.83
2022-12-14T09:59:25.017Z,17.17
2022-12-14T10:03:07.128Z,15.95
2022-12-14T10:06:30.186Z,17.27
2022-12-14T10:10:01.511Z,17.15
2022-12-14T10:13:39.132Z,17.70
2022-12-14T10:17:10.225Z,16.60
2022-12-14T10:20:16.186Z,17.27
2022-12-14T10:23:05.829Z,17.00
2022-12-14T10:26:09.519Z,17.83
2022-12-14T10:29:23.892Z,17.33
2022-12-14T10:32:39.832Z,17.10
2022-12-14T10:35:52.699Z,17.65
2022-12-14T10:39:09.866Z,17.17
2022-12-14T10:42:41.815Z,15.57
2022-12-14T10:45:47.320Z,18.00
2022-12-14T10:48:56.628Z,17.58
2022-12-14T10:52:21.358Z,16.85
2022-12-14T10:55:42.114Z,17.92
2022-12-14T10:58:31.168Z,16.02
2022-12-14T11:01:26.879Z,17.35
2022-12-14T11:04:43.772Z,16.98
2022-12-14T11:07:37.491Z,16.67
2022-12-14T11:10:37.649Z,17.88
2022-12-14T11:13:29.651Z,17.55
2022-12-14T11:16:38.893Z,18.27
2022-12-14T11:19:30.495Z,17.23
2022-12-14T11:22:36.103Z,19.10
2022-12-14T11:25:42.280Z,16.88
2022-12-14T11:29:05.951Z,17.17
2022-12-14T11:32:02.913Z,17.97
2022-12-14T11:34:59.755Z,16.15
2022-12-14T11:37:59.286Z,16.38
2022-12-14T11:40:50.336Z,16.23
2022-12-14T11:43:42.984Z,15.52
2022-12-14T11:46:57.429Z,16.95
2022-12-14T11:49:54.411Z,16.23
2022-12-14T11:53:18.024Z,17.10
2022-12-14T11:56:27.736Z,16.50
2022-12-14T11:59:27.175Z,17.10
2022-12-14T12:02:32.733Z,16.92
2022-12-14T12:05:39.812Z,15.60
2022-12-14T12:08:51.811Z,15.95
2022-12-14T14:47:58.289Z,14.98
2022-12-14T14:50:49.247Z,16.42
2022-12-14T14:53:40.979Z,14.98
2022-12-14T14:56:46.135Z,16.08
2022-12-14T14:59:50.967Z,17.60
2022-12-14T15:03:41.530Z,15.95
2022-12-14T15:06:44.469Z,15.80
2022-12-14T15:10:33.946Z,16.60
2022-12-14T15:13:35.432Z,15.48
2022-12-14T15:16:59.572Z,16.77
2022-12-14T15:23:11.803Z,16.73
2022-12-14T15:26:05.389Z,16.40
2022-12-14T15:29:19.464Z,17.17
2022-12-14T15:32:51.481Z,17.42
2022-12-14T17:45:15.281Z,24.02
2022-12-14T18:32:04.631Z,23.13
2022-12-14T18:35:29.497Z,23.48
2022-12-14T18:38:29.971Z,24.52
2022-12-14T18:42:16.632Z,23.60
2022-12-14T18:46:09.665Z,23.77
2022-12-14T18:49:46.409Z,24.38
2022-12-14T18:52:48.700Z,23.45
2022-12-14T18:55:56.796Z,24.70
2022-12-14T18:59:24.425Z,25.05
2022-12-14T19:02:26.501Z,25.05
2022-12-14T19:05:43.719Z,25.95
2022-12-14T20:10:38.982Z,26.27
2022-12-14T20:18:21.759Z,25.25
2022-12-14T20:32:50.339Z,28.65
2022-12-14T20:48:29.031Z,28.88
2022-12-14T20:59:09.820Z,20.60
2022-12-14T21:36:18.023Z,23.20
2022-12-14T21:44:07.757Z,24.50
2022-12-14T21:47:49.552Z,27.13
2022-12-14T21:54:08.375Z,26.35
2022-12-14T21:57:22.996Z,24.13
2022-12-14T22:11:37.638Z,22.35
2022-12-14T22:18:48.437Z,22.27
2022-12-14T22:25:08.877Z,25.43
2022-12-14T22:39:21.048Z,25.60
2022-12-14T22:47:57.097Z,24.73
2022-12-14T22:51:35.299Z,27.20
2022-12-14T22:58:01.348Z,27.10
2022-12-14T23:00:59.063Z,25.85
2022-12-14T23:04:06.741Z,27.60
2022-12-14T23:07:13.297Z,28.38
2022-12-14T23:10:39.451Z,28.15
2022-12-14T23:14:08.033Z,27.75
2022-12-14T23:24:40.950Z,28.77
2022-12-14T23:36:25.693Z,29.98
2022-12-14T23:39:44.257Z,28.65
2022-12-14T23:43:50.112Z,27.05
2022-12-14T23:51:06.745Z,26.77
2022-12-14T23:54:20.583Z,27.27
2022-12-14T23:57:31.518Z,26.15
